createdAt,value
2022-12-29T00:00:15.987Z,1.83
2022-12-29T00:02:43.737Z,1.50
2022-12-29T00:05:11.384Z,2.20
2022-12-29T00:07:40.520Z,1.50
2022-12-29T00:10:09.058Z,1.90
2022-12-29T00:12:50.579Z,1.77
2022-12-29T00:15:35.727Z,1.13
2022-12-29T00:18:03.549Z,1.67
2022-12-29T00:20:48.617Z,1.87
2022-12-29T00:23:35.139Z,1.87
2022-12-29T00:26:22.836Z,2.20
2022-12-29T00:29:12.815Z,1.30
2022-12-29T00:31:58.122Z,1.50
2022-12-29T00:34:43.409Z,1.47
2022-12-29T00:37:11.186Z,2.20
2022-12-29T00:39:57.594Z,1.70
2022-12-29T00:42:42.976Z,1.20
2022-12-29T00:45:10.797Z,1.70
2022-12-29T00:47:38.382Z,1.60
2022-12-29T00:50:08.254Z,2.10
2022-12-29T00:52:35.883Z,1.63
2022-12-29T00:55:05.298Z,1.40
2022-12-29T00:57:32.919Z,1.50
2022-12-29T01:00:00.722Z,1.73
2022-12-29T01:02:28.480Z,1.30
2022-12-29T01:04:56.146Z,1.60
2022-12-29T01:07:23.808Z,1.40
2022-12-29T01:10:08.800Z,1.30
2022-12-29T01:12:45.805Z,1.30
2022-12-29T01:15:15.079Z,1.20
2022-12-29T01:17:42.678Z,1.50
2022-12-29T01:20:11.633Z,1.30
2022-12-29T01:22:39.269Z,1.20
2022-12-29T01:25:07.847Z,1.10
2022-12-29T01:27:36.789Z,1.10
2022-12-29T01:30:04.885Z,1.10
2022-12-29T01:32:32.351Z,1.33
2022-12-29T01:35:00.388Z,1.20
2022-12-29T01:37:27.873Z,1.20
2022-12-29T01:39:55.342Z,1.10
2022-12-29T01:42:26.915Z,1.10
2022-12-29T01:44:57.538Z,1.30
2022-12-29T01:47:30.854Z,1.20
2022-12-29T01:50:00.215Z,1.20
2022-12-29T01:52:30.176Z,1.07
2022-12-29T01:54:58.017Z,1.07
2022-12-29T01:57:27.931Z,1.40
2022-12-29T01:59:58.596Z,1.27
2022-12-29T02:02:26.593Z,1.50
2022-12-29T02:04:58.858Z,1.10
2022-12-29T02:07:29.850Z,1.03
2022-12-29T02:09:57.894Z,1.23
2022-12-29T02:12:25.659Z,1.10
2022-12-29T02:14:57.951Z,0.90
2022-12-29T02:17:33.476Z,1.10
2022-12-29T02:20:19.747Z,1.10
2022-12-29T02:22:52.069Z,1.10
2022-12-29T02:25:45.884Z,1.10
2022-12-29T02:28:35.605Z,1.67
2022-12-29T02:31:10.697Z,1.07
2022-12-29T02:33:50.079Z,0.80
2022-12-29T02:36:23.726Z,1.03
2022-12-29T02:38:58.534Z,1.03
2022-12-29T02:41:33.293Z,1.20
2022-12-29T02:44:05.890Z,1.00
2022-12-29T02:46:38.285Z,1.20
2022-12-29T02:49:11.256Z,0.67
2022-12-29T02:51:46.234Z,1.10
2022-12-29T02:54:31.341Z,0.80
2022-12-29T02:56:58.818Z,1.00
2022-12-29T02:59:26.471Z,2.03
2022-12-29T03:02:21.555Z,1.33
2022-12-29T03:05:00.660Z,0.80
2022-12-29T03:07:34.804Z,0.90
2022-12-29T03:10:09.877Z,0.87
2022-12-29T03:13:00.213Z,1.43
2022-12-29T03:15:48.074Z,0.80
2022-12-29T03:18:21.705Z,0.83
2022-12-29T03:20:53.204Z,1.10
2022-12-29T03:23:22.001Z,1.00
2022-12-29T03:25:51.376Z,1.10
2022-12-29T03:28:21.723Z,0.73
2022-12-29T03:30:49.373Z,0.80
2022-12-29T03:33:20.668Z,1.50
2022-12-29T03:35:50.481Z,0.80
2022-12-29T03:38:20.602Z,1.00
2022-12-29T03:40:50.473Z,1.10
2022-12-29T03:43:19.163Z,0.83
2022-12-29T03:45:46.700Z,1.03
2022-12-29T03:48:14.212Z,1.03
2022-12-29T03:50:43.217Z,1.00
2022-12-29T03:53:10.745Z,1.07
2022-12-29T03:55:38.185Z,1.00
2022-12-29T03:58:05.732Z,1.00
2022-12-29T04:00:33.189Z,0.97
2022-12-29T04:03:00.784Z,0.97
2022-12-29T04:05:28.440Z,1.00
2022-12-29T04:07:57.229Z,1.30
2022-12-29T04:10:24.676Z,1.33
2022-12-29T04:12:52.137Z,1.10
2022-12-29T04:15:19.684Z,1.10
2022-12-29T04:17:47.173Z,1.67
2022-12-29T04:20:32.065Z,0.80
2022-12-29T04:23:02.341Z,1.10
2022-12-29T04:25:29.825Z,0.90
2022-12-29T04:27:57.316Z,1.20
2022-12-29T04:30:24.889Z,1.23
2022-12-29T04:32:52.375Z,1.10
2022-12-29T04:35:19.834Z,1.10
2022-12-29T04:37:47.301Z,1.37
2022-12-29T04:40:16.217Z,1.03
2022-12-29T04:42:44.291Z,1.10
2022-12-29T04:45:12.536Z,1.40
2022-12-29T04:47:40.044Z,1.30
2022-12-29T04:50:08.348Z,0.90
2022-12-29T04:52:35.911Z,0.90
2022-12-29T04:55:03.607Z,1.00
2022-12-29T04:57:32.426Z,0.97
2022-12-29T05:00:00.879Z,0.90
2022-12-29T05:02:28.546Z,1.17
2022-12-29T05:04:56.193Z,1.50
2022-12-29T05:07:23.696Z,1.10
2022-12-29T05:09:51.199Z,0.90
2022-12-29T05:12:18.664Z,1.00
2022-12-29T05:14:47.495Z,1.70
2022-12-29T05:17:14.940Z,1.33
2022-12-29T05:19:42.392Z,1.00
2022-12-29T05:22:10.077Z,1.17
2022-12-29T05:24:37.588Z,0.80
2022-12-29T05:27:05.158Z,1.10
2022-12-29T05:29:32.738Z,0.80
2022-12-29T05:32:01.630Z,1.13
2022-12-29T05:34:29.182Z,1.23
2022-12-29T05:36:56.687Z,0.97
2022-12-29T05:39:24.130Z,0.80
2022-12-29T05:41:51.614Z,1.10
2022-12-29T05:44:19.161Z,1.20
2022-12-29T05:46:47.022Z,0.90
2022-12-29T05:49:15.956Z,1.17
2022-12-29T05:51:43.405Z,1.43
2022-12-29T05:54:10.886Z,0.90
2022-12-29T05:56:38.388Z,1.03
2022-12-29T05:59:05.937Z,1.00
2022-12-29T06:01:35.235Z,1.13
2022-12-29T06:04:02.904Z,1.30
2022-12-29T06:06:31.813Z,1.27
2022-12-29T06:08:59.319Z,1.93
2022-12-29T06:11:26.793Z,0.87
2022-12-29T06:13:54.306Z,1.27
2022-12-29T06:16:21.989Z,1.00
2022-12-29T06:18:49.484Z,0.70
2022-12-29T06:21:16.917Z,1.00
2022-12-29T06:23:46.166Z,1.20
2022-12-29T06:26:13.621Z,1.60
2022-12-29T06:28:41.360Z,0.80
2022-12-29T06:31:11.236Z,0.70
2022-12-29T06:33:39.087Z,0.90
2022-12-29T06:36:07.120Z,1.20
2022-12-29T06:38:36.096Z,0.80
2022-12-29T06:41:05.128Z,1.47
2022-12-29T06:43:33.157Z,1.33
2022-12-29T06:46:01.334Z,0.90
2022-12-29T06:48:28.826Z,1.20
2022-12-29T06:50:56.295Z,0.80
2022-12-29T06:53:23.774Z,1.27
2022-12-29T06:55:51.378Z,1.00
2022-12-29T06:58:20.292Z,1.50
2022-12-29T07:00:47.897Z,1.50
2022-12-29T07:03:15.488Z,0.90
2022-12-29T07:05:42.962Z,1.37
2022-12-29T07:08:10.473Z,1.30
2022-12-29T07:10:37.943Z,1.20
2022-12-29T07:13:05.434Z,1.23
2022-12-29T07:15:34.249Z,2.47
2022-12-29T07:18:01.752Z,1.00
2022-12-29T07:20:29.239Z,1.43
2022-12-29T07:22:56.785Z,1.10
2022-12-29T07:25:24.324Z,1.63
2022-12-29T07:27:51.976Z,1.10
2022-12-29T07:30:19.664Z,1.20
2022-12-29T07:32:48.422Z,1.10
2022-12-29T07:35:15.887Z,1.57
2022-12-29T07:37:45.092Z,1.40
2022-12-29T07:40:13.728Z,1.13
2022-12-29T07:42:41.636Z,1.50
2022-12-29T07:45:11.086Z,1.50
2022-12-29T07:47:38.570Z,1.40
2022-12-29T07:50:08.377Z,1.70
2022-12-29T07:52:35.973Z,1.40
2022-12-29T07:55:03.435Z,1.43
2022-12-29T07:57:32.243Z,1.30
2022-12-29T08:00:00.061Z,0.80
2022-12-29T08:02:28.141Z,1.27
2022-12-29T08:04:55.820Z,1.00
2022-12-29T08:07:24.643Z,1.83
2022-12-29T08:09:52.091Z,1.50
2022-12-29T08:12:19.729Z,1.40
2022-12-29T08:14:47.199Z,1.40
2022-12-29T08:17:14.650Z,1.30
2022-12-29T08:19:43.489Z,1.30
2022-12-29T08:22:11.129Z,1.47
2022-12-29T08:24:39.965Z,1.20
2022-12-29T08:27:16.074Z,2.00
2022-12-29T08:29:47.347Z,1.57
2022-12-29T08:32:14.868Z,1.70
2022-12-29T08:34:42.365Z,1.67
2022-12-29T08:37:09.850Z,1.83
2022-12-29T08:39:37.426Z,1.70
2022-12-29T08:42:07.239Z,1.57
2022-12-29T08:44:34.727Z,1.70
2022-12-29T08:47:02.228Z,1.90
2022-12-29T08:49:29.819Z,1.70
2022-12-29T08:51:57.301Z,1.77
2022-12-29T08:54:24.857Z,1.23
2022-12-29T08:56:52.590Z,1.93
2022-12-29T08:59:21.393Z,2.13
2022-12-29T09:01:48.957Z,1.87
2022-12-29T09:04:17.632Z,2.07
2022-12-29T09:06:46.164Z,2.37
2022-12-29T09:09:14.267Z,2.40
2022-12-29T09:11:42.145Z,1.87
2022-12-29T09:14:09.931Z,2.60
2022-12-29T09:16:39.043Z,2.27
2022-12-29T09:19:06.707Z,4.93
2022-12-29T09:21:34.293Z,2.97
2022-12-29T09:24:01.829Z,2.40
2022-12-29T09:26:29.342Z,3.00
2022-12-29T09:28:57.703Z,2.13
2022-12-29T09:31:25.983Z,2.27
2022-12-29T09:33:54.785Z,2.17
2022-12-29T09:36:22.257Z,3.20
2022-12-29T09:38:49.699Z,2.67
2022-12-29T09:41:22.823Z,2.60
2022-12-29T09:44:05.592Z,3.60
2022-12-29T09:46:36.625Z,2.40
2022-12-29T09:49:11.967Z,3.00
2022-12-29T09:51:40.330Z,2.10
2022-12-29T09:54:23.223Z,2.63
2022-12-29T09:56:51.267Z,3.20
2022-12-29T09:59:21.850Z,3.07
2022-12-29T10:01:54.733Z,2.83
2022-12-29T10:04:23.697Z,2.23
2022-12-29T10:07:28.083Z,2.27
2022-12-29T10:09:47.748Z,1.93
2022-12-29T10:12:25.428Z,1.60
2022-12-29T10:15:02.484Z,1.33
2022-12-29T10:17:38.191Z,1.60
2022-12-29T10:20:28.211Z,1.30
2022-12-29T10:23:07.892Z,1.47
2022-12-29T10:25:39.608Z,1.03
2022-12-29T10:28:11.682Z,1.00
2022-12-29T10:30:39.681Z,0.90
2022-12-29T10:33:09.775Z,1.20
2022-12-29T10:35:41.331Z,0.80
2022-12-29T10:38:15.168Z,2.00
2022-12-29T10:40:45.752Z,0.80
2022-12-29T10:43:21.513Z,0.90
2022-12-29T10:45:49.839Z,1.10
2022-12-29T10:48:24.853Z,1.27
2022-12-29T10:51:01.989Z,0.90
2022-12-29T10:53:33.965Z,1.27
2022-12-29T10:56:02.801Z,0.97
2022-12-29T10:58:33.059Z,1.13
2022-12-29T11:01:00.948Z,1.10
2022-12-29T11:03:48.251Z,0.90
2022-12-29T11:06:20.957Z,0.90
2022-12-29T11:08:54.406Z,0.70
2022-12-29T11:11:27.967Z,0.97
2022-12-29T11:14:00.404Z,0.60
2022-12-29T11:16:33.759Z,0.60
2022-12-29T11:19:01.861Z,0.70
2022-12-29T11:21:34.804Z,0.73
2022-12-29T11:24:03.599Z,0.70
2022-12-29T11:26:34.535Z,0.60
2022-12-29T11:29:17.922Z,0.60
2022-12-29T11:31:47.413Z,0.90
2022-12-29T11:34:20.326Z,0.67
2022-12-29T11:36:49.853Z,0.80
2022-12-29T11:39:28.721Z,0.70
2022-12-29T11:41:56.345Z,0.70
2022-12-29T11:44:23.952Z,0.60
2022-12-29T11:46:53.162Z,0.60
2022-12-29T11:49:22.310Z,0.60
2022-12-29T11:51:52.811Z,0.67
2022-12-29T11:54:23.918Z,0.77
2022-12-29T11:56:52.154Z,0.90
2022-12-29T11:59:38.863Z,1.03
2022-12-29T12:02:37.294Z,0.93
2022-12-29T12:05:17.721Z,0.70
2022-12-29T12:07:47.944Z,0.87
2022-12-29T12:10:34.681Z,0.93
2022-12-29T12:13:08.160Z,0.67
2022-12-29T12:15:45.364Z,0.60
2022-12-29T12:18:19.483Z,0.60
2022-12-29T12:20:49.634Z,0.60
2022-12-29T12:23:38.792Z,0.70
2022-12-29T12:26:12.535Z,1.20
2022-12-29T12:28:47.087Z,0.70
2022-12-29T12:31:21.207Z,0.60
2022-12-29T12:33:50.751Z,0.70
2022-12-29T12:36:28.985Z,0.60
2022-12-29T12:39:04.743Z,0.70
2022-12-29T12:41:43.534Z,0.60
2022-12-29T12:44:13.810Z,0.83
2022-12-29T12:46:54.458Z,0.67
2022-12-29T12:49:44.773Z,0.70
2022-12-29T12:52:19.138Z,0.83
2022-12-29T12:54:59.136Z,0.70
2022-12-29T12:57:36.720Z,0.70
2022-12-29T13:00:07.537Z,0.87
2022-12-29T13:02:45.648Z,1.87
2022-12-29T13:05:29.152Z,0.87
2022-12-29T13:08:08.862Z,0.80
2022-12-29T13:10:48.334Z,0.67
2022-12-29T13:13:45.058Z,0.80
2022-12-29T13:16:15.473Z,0.70
2022-12-29T13:18:48.735Z,0.70
2022-12-29T13:21:24.481Z,1.07
2022-12-29T13:23:58.281Z,0.80
2022-12-29T13:26:31.538Z,0.80
2022-12-29T13:29:04.136Z,0.80
2022-12-29T13:31:37.892Z,0.90
2022-12-29T13:34:13.145Z,0.80
2022-12-29T13:36:46.579Z,0.63
2022-12-29T13:39:21.086Z,0.70
2022-12-29T13:41:52.456Z,0.80
2022-12-29T13:44:23.925Z,0.70
2022-12-29T13:46:51.896Z,0.97
2022-12-29T13:49:21.088Z,1.00
2022-12-29T13:51:50.988Z,0.80
2022-12-29T13:54:33.037Z,0.67
2022-12-29T13:57:08.895Z,0.87
2022-12-29T13:59:42.681Z,0.60
2022-12-29T14:02:19.003Z,0.67
2022-12-29T14:04:58.416Z,1.00
2022-12-29T14:07:25.985Z,0.80
2022-12-29T14:09:54.596Z,1.43
2022-12-29T14:12:33.795Z,0.90
2022-12-29T14:15:07.176Z,0.70
2022-12-29T14:17:34.840Z,0.80
2022-12-29T14:20:02.570Z,0.80
2022-12-29T14:22:33.345Z,0.93
2022-12-29T14:25:01.220Z,1.00
2022-12-29T14:27:55.751Z,0.80
2022-12-29T14:30:59.804Z,0.80
2022-12-29T14:33:30.342Z,1.50
2022-12-29T14:35:58.408Z,0.83
2022-12-29T14:38:33.202Z,0.90
2022-12-29T14:41:34.474Z,1.10
2022-12-29T14:44:16.839Z,0.80
2022-12-29T14:46:50.085Z,0.87
2022-12-29T14:49:20.905Z,0.67
2022-12-29T14:51:49.223Z,0.80
2022-12-29T14:54:52.156Z,3.00
2022-12-29T14:57:27.804Z,0.90
2022-12-29T15:00:00.307Z,0.73
2022-12-29T15:02:35.255Z,1.03
2022-12-29T15:05:04.783Z,1.67
2022-12-29T15:07:33.153Z,1.00
2022-12-29T15:10:06.761Z,1.03
2022-12-29T15:12:39.361Z,1.30
2022-12-29T15:15:20.480Z,1.33
2022-12-29T15:17:48.104Z,1.63
2022-12-29T15:20:27.579Z,0.90
2022-12-29T15:22:57.878Z,0.70
2022-12-29T15:25:26.247Z,0.67
2022-12-29T15:27:55.014Z,0.77
2022-12-29T15:30:24.287Z,0.60
2022-12-29T15:32:52.769Z,0.77
2022-12-29T15:35:35.835Z,0.77
2022-12-29T15:38:15.180Z,1.93
2022-12-29T15:40:45.896Z,0.80
2022-12-29T15:43:25.550Z,0.97
2022-12-29T15:45:56.170Z,0.70
2022-12-29T15:48:25.370Z,0.70
2022-12-29T15:50:53.233Z,0.90
2022-12-29T15:53:25.660Z,0.90
2022-12-29T15:55:55.944Z,0.90
2022-12-29T15:58:28.921Z,1.40
2022-12-29T16:00:59.775Z,1.33
2022-12-29T16:03:28.817Z,0.93
2022-12-29T16:05:57.779Z,1.20
2022-12-29T16:08:38.775Z,0.70
2022-12-29T16:11:10.164Z,0.80
2022-12-29T16:13:40.865Z,0.60
2022-12-29T16:16:16.132Z,0.73
2022-12-29T16:18:43.806Z,0.80
2022-12-29T16:21:18.995Z,1.07
2022-12-29T16:23:49.678Z,1.20
2022-12-29T16:26:18.467Z,1.23
2022-12-29T16:28:46.380Z,0.70
2022-12-29T16:31:24.617Z,0.80
2022-12-29T16:33:53.927Z,0.97
2022-12-29T16:36:30.878Z,0.90
2022-12-29T16:39:25.244Z,1.10
2022-12-29T16:41:53.213Z,0.60
2022-12-29T16:44:22.194Z,0.80
2022-12-29T16:47:06.121Z,1.20
2022-12-29T16:49:36.299Z,0.70
2022-12-29T16:52:13.496Z,1.20
2022-12-29T16:54:41.280Z,1.00
2022-12-29T16:57:09.401Z,0.70
2022-12-29T16:59:39.149Z,0.87
2022-12-29T17:02:14.952Z,1.83
2022-12-29T17:04:42.667Z,0.93
2022-12-29T17:07:15.991Z,1.00
2022-12-29T17:09:43.620Z,0.90
2022-12-29T17:12:13.382Z,0.67
2022-12-29T17:14:43.578Z,0.90
2022-12-29T17:17:17.369Z,0.70
2022-12-29T17:19:48.315Z,1.10
2022-12-29T17:22:18.942Z,1.27
2022-12-29T17:24:46.834Z,1.03
2022-12-29T17:27:22.891Z,0.80
2022-12-29T17:29:51.088Z,0.90
2022-12-29T17:32:20.516Z,0.93
2022-12-29T17:34:48.780Z,1.00
2022-12-29T17:37:30.348Z,1.00
2022-12-29T17:39:58.111Z,1.13
2022-12-29T17:42:26.035Z,1.10
2022-12-29T17:44:53.754Z,2.63
2022-12-29T17:47:22.718Z,1.03
2022-12-29T17:49:50.279Z,0.90
2022-12-29T17:52:18.642Z,1.07
2022-12-29T17:54:48.053Z,1.67
2022-12-29T17:57:16.993Z,0.83
2022-12-29T17:59:44.615Z,0.97
2022-12-29T18:02:25.932Z,0.90
2022-12-29T18:04:54.155Z,1.43
2022-12-29T18:07:22.543Z,1.00
2022-12-29T18:09:50.275Z,1.30
2022-12-29T18:12:39.025Z,1.37
2022-12-29T18:15:08.391Z,0.77
2022-12-29T18:17:37.602Z,0.87
2022-12-29T18:20:05.905Z,0.90
2022-12-29T18:22:33.575Z,1.27
2022-12-29T18:25:02.037Z,1.10
2022-12-29T18:27:29.773Z,0.97
2022-12-29T18:29:57.304Z,1.53
2022-12-29T18:32:25.104Z,1.67
2022-12-29T18:34:54.214Z,1.40
2022-12-29T18:37:21.850Z,1.30
2022-12-29T18:39:49.702Z,1.20
2022-12-29T18:42:18.494Z,1.40
2022-12-29T18:44:46.199Z,1.67
2022-12-29T18:47:13.857Z,1.13
2022-12-29T18:49:41.624Z,2.03
2022-12-29T18:52:13.980Z,1.10
2022-12-29T18:54:41.504Z,0.77
2022-12-29T18:57:08.998Z,0.87
2022-12-29T18:59:36.582Z,1.80
2022-12-29T19:02:04.270Z,1.10
2022-12-29T19:04:31.815Z,1.77
2022-12-29T19:06:59.295Z,1.00
2022-12-29T19:09:28.327Z,1.40
2022-12-29T19:11:55.952Z,1.50
2022-12-29T19:14:23.552Z,1.07
2022-12-29T19:16:51.153Z,1.23
2022-12-29T19:19:18.881Z,0.90
2022-12-29T19:21:49.096Z,1.60
2022-12-29T19:24:16.767Z,1.60
2022-12-29T19:26:45.727Z,1.30
2022-12-29T19:29:15.590Z,1.30
2022-12-29T19:31:43.708Z,1.00
2022-12-29T19:34:11.962Z,1.03
2022-12-29T19:36:39.562Z,1.50
2022-12-29T19:39:07.229Z,1.40
2022-12-29T19:41:34.978Z,1.20
2022-12-29T19:44:05.219Z,1.00
2022-12-29T19:46:32.971Z,1.70
2022-12-29T19:49:00.986Z,1.80
2022-12-29T19:51:28.650Z,1.40
2022-12-29T19:53:58.373Z,1.53
2022-12-29T19:56:25.956Z,1.10
2022-12-29T19:58:57.551Z,1.23
2022-12-29T20:01:27.358Z,1.30
2022-12-29T20:03:55.071Z,1.67
2022-12-29T20:06:22.966Z,1.57
2022-12-29T20:08:50.560Z,1.13
2022-12-29T20:11:19.219Z,1.90
2022-12-29T20:13:47.896Z,1.40
2022-12-29T20:16:18.036Z,1.73
2022-12-29T20:18:47.890Z,1.73
2022-12-29T20:21:18.091Z,2.10
2022-12-29T20:23:46.222Z,1.93
2022-12-29T20:26:15.665Z,3.57
2022-12-29T20:28:43.421Z,2.27
2022-12-29T20:31:17.138Z,1.90
2022-12-29T20:33:44.777Z,2.47
2022-12-29T20:36:16.137Z,1.90
2022-12-29T20:38:44.451Z,1.50
2022-12-29T20:41:13.879Z,1.43
2022-12-29T20:43:42.143Z,1.57
2022-12-29T20:46:11.008Z,2.10
2022-12-29T20:48:39.053Z,1.63
2022-12-29T20:51:07.459Z,1.20
2022-12-29T20:53:37.606Z,1.27
2022-12-29T20:56:07.055Z,1.77
2022-12-29T20:58:47.165Z,1.43
2022-12-29T21:01:24.385Z,1.30
2022-12-29T21:03:52.500Z,1.13
2022-12-29T21:06:21.716Z,1.80
2022-12-29T21:08:51.146Z,2.00
2022-12-29T21:11:19.527Z,2.00
2022-12-29T21:13:47.194Z,2.17
2022-12-29T21:16:15.481Z,2.77
2022-12-29T21:18:43.340Z,1.27
2022-12-29T21:21:16.185Z,1.30
2022-12-29T21:23:43.963Z,1.80
2022-12-29T21:26:15.213Z,2.40
2022-12-29T21:28:43.499Z,1.57
2022-12-29T21:31:12.779Z,1.57
2022-12-29T21:33:40.428Z,1.10
2022-12-29T21:36:09.519Z,1.20
2022-12-29T21:38:39.746Z,1.37
2022-12-29T21:41:08.712Z,1.23
2022-12-29T21:43:38.511Z,2.03
2022-12-29T21:46:06.189Z,1.47
2022-12-29T21:48:33.865Z,1.60
2022-12-29T21:51:30.180Z,1.03
2022-12-29T21:54:20.382Z,1.73
2022-12-29T21:56:49.044Z,1.40
2022-12-29T21:59:35.963Z,1.13
2022-12-29T22:02:23.259Z,1.30
2022-12-29T22:05:12.176Z,1.57
2022-12-29T22:07:57.822Z,2.20
2022-12-29T22:10:43.418Z,1.57
2022-12-29T22:13:11.280Z,1.50
2022-12-29T22:15:41.069Z,1.23
2022-12-29T22:18:08.666Z,1.70
2022-12-29T22:20:37.610Z,1.77
2022-12-29T22:23:05.507Z,1.10
2022-12-29T22:25:33.226Z,1.27
2022-12-29T22:28:00.901Z,1.40
2022-12-29T22:30:28.973Z,1.70
2022-12-29T22:32:59.396Z,1.30
2022-12-29T22:35:27.097Z,1.87
2022-12-29T22:37:55.203Z,1.33
2022-12-29T22:40:22.873Z,1.17
2022-12-29T22:42:50.471Z,1.40
2022-12-29T22:45:18.133Z,2.03
2022-12-29T22:47:45.678Z,1.20
2022-12-29T22:50:17.317Z,1.20
2022-12-29T22:52:44.918Z,1.33
2022-12-29T22:55:12.462Z,1.50
2022-12-29T22:57:40.132Z,1.73
2022-12-29T23:00:09.134Z,1.20
2022-12-29T23:02:36.978Z,1.60
2022-12-29T23:05:06.103Z,1.80
2022-12-29T23:07:36.280Z,1.40
2022-12-29T23:10:04.101Z,1.53
2022-12-29T23:12:32.493Z,1.90
2022-12-29T23:15:02.207Z,2.00
2022-12-29T23:17:29.995Z,2.60
2022-12-29T23:19:57.605Z,1.03
2022-12-29T23:22:25.247Z,1.27
2022-12-29T23:24:54.200Z,1.20
2022-12-29T23:27:22.005Z,1.33
2022-12-29T23:29:49.625Z,2.43
2022-12-29T23:32:17.289Z,2.13
2022-12-29T23:34:44.815Z,1.63
2022-12-29T23:37:12.890Z,1.67
2022-12-29T23:39:43.226Z,1.40
2022-12-29T23:42:12.353Z,1.60
2022-12-29T23:44:40.121Z,1.87
2022-12-29T23:47:07.824Z,1.80
2022-12-29T23:49:35.485Z,2.40
2022-12-29T23:52:03.157Z,1.27
2022-12-29T23:54:30.678Z,1.60
2022-12-29T23:56:58.371Z,1.40
2022-12-29T23:59:27.487Z,1.13
